Un Akdeniz — TCTD2 — position and weather

sailwx.info

Track history (hours):
 
Tides and Currents Weather Stations Pressure Air Temp Water Temp Dewpoint Dewpoint Depression Visibility Wind Speed Wind Dir Waves Ship Positions

Un Akdeniz

Last reported at 2015-Jan-26 07:26 UTC. Time now 2015-Jan-27 21:02 UTC.
Position N 40°28' E 026°51'.

Length 192 m; draft 6.8 m.

Type: Ship (hazmat cat A). MMSI: 271002572.

Date/timePositionNaut miles runAvg speedWind from/ knotsBaromVisibWave heightAir tempDewpointWater temp
2015-Jan-26 07:26N 40°28' E 026°51'1416.2
2015-Jan-26 06:33N 40°19' E 026°36'6615.9
2015-Jan-26 02:24N 39°30' E 025°39'  
2015-Jan-19 16:15N 37°51' E 024°26'19217.5
2015-Jan-19 05:17N 40°28' E 026°50'14 0.5
2015-Jan-18 03:23N 40°19' E 026°36'4214.7
2015-Jan-18 00:31N 39°52' E 025°53'2019.0
2015-Jan-17 23:28N 39°35' E 025°41'2320.3
2015-Jan-17 22:21N 39°14' E 025°28'8419.9
2015-Jan-17 18:09N 37°60' E 024°40'15216.9
2015-Jan-17 09:07N 36°31' E 022°04'  
Track history (hours):
 
Tides and Currents Weather Stations Pressure Air Temp Water Temp Dewpoint Dewpoint Depression Visibility Wind Speed Wind Dir Waves Ship Positions

Un Akdeniz

Last reported at 2015-Jan-26 07:26 UTC. Time now 2015-Jan-27 21:02 UTC.
Position N 40°28' E 026°51'.

Length 192 m; draft 6.8 m.

Type: Ship (hazmat cat A). MMSI: 271002572.

Date/timePositionNaut miles runAvg speedWind from/ knotsBaromVisibWave heightAir tempDewpointWater temp
2015-Jan-26 07:26N 40°28' E 026°51'1416.2
2015-Jan-26 06:33N 40°19' E 026°36'6615.9
2015-Jan-26 02:24N 39°30' E 025°39'  
2015-Jan-19 16:15N 37°51' E 024°26'19217.5
2015-Jan-19 05:17N 40°28' E 026°50'14 0.5
2015-Jan-18 03:23N 40°19' E 026°36'4214.7
2015-Jan-18 00:31N 39°52' E 025°53'2019.0
2015-Jan-17 23:28N 39°35' E 025°41'2320.3
2015-Jan-17 22:21N 39°14' E 025°28'8419.9
2015-Jan-17 18:09N 37°60' E 024°40'15216.9
2015-Jan-17 09:07N 36°31' E 022°04'  

Dump ship's entire track history